Joliet, IL

9:15 PM CDT on August 02, 2015 (GMT -0500)
Warwick Subdivision, Joliet, IL | | Change Station
CLOSE
Current Station
Personal Weather Station
Location: Joliet, IL
Elevation: 591 ft
Nearby Weather Stations
Active Advisory: Severe Thunderstorm Watch

Elev 591 ft 41.55 °N, 88.15 °W | Updated 33 seconds ago

Scattered Clouds
Scattered Clouds
82.5 °F
Feels Like 87 °F
N
4.0
Wind Variable Wind from SSW
Gusts 9.0 mph

Today
High -- | Low -- °F
--% Chance of Precip.
Yesterday
High -- | Low -- °F
Precip. -- in
5:47 AM 8:09 PM
Waning Gibbous, 90% visible
Pressure 29.70 in
Visibility 10.0 miles
Clouds Scattered Clouds 4800 ft
Scattered Clouds 5000 ft
Heat Index 87 °F
Dew Point 71 °F
Humidity 68%
Rainfall 0.00 in
Snow Depth Not available.
UV 0 out of 12
Pollen 8.00 out of 12
Air Quality Not available.
Flu Activity Not available.
METAR KJOT 030155Z AUTO 23009G14KT 10SM SCT048 SCT050 29/22 A2970 RMK AO2 LTG DSNT N AND NW T02940216

More Conditions Fewer Conditions

Pressure 29.70 in
Visibility 10.0 miles
Clouds Scattered Clouds 4800 ft
Scattered Clouds 5000 ft
Heat Index 87 °F
Dew Point 71 °F
Humidity 68%
Rainfall 0.00 in
Snow Depth Not available.
UV 0 out of 12
Pollen 8.00 out of 12
Air Quality Not available.
Flu Activity Not available.
METAR KJOT 030155Z AUTO 23009G14KT 10SM SCT048 SCT050 29/22 A2970 RMK AO2 LTG DSNT N AND NW T02940216

More Conditions Fewer Conditions

10-Day Weather Forecast

×

Almanac

Astronomy

Aug. 02, 2015 Rise Set
Actual Time
Civil Twilight
Nautical Twilight
Astronomical Twilight
Moon
Length of Visible Light
Length of Day
Tomorrow will be .
, % of the Moon is Illuminated

Today's Extremes

State Highs State Lows

Community

WunderPhotos

Upload Photos

1,843,515 photos uploaded!

WunderBlogs® & News

Nearby

Air Quality

  Air Quality AQ Index Pollutant
Not available.

Snow Depth

Station Depth Elevation

Earthquake Activity

City Distance Mag. Time & Date
Minimum magnitude displayed is 2.5.

Coastal Water Temperatures

Place Temperature

Stations

Nearby Weather Stations

Station Location Temp. Windchill Dew Point Humidity Wind Precip. Elev Updated Type
                   
Severe Thunderstorm Watch
Statement as of 9:03 PM CDT on August 02, 2015

Severe Thunderstorm Watch 465 remains in effect until 200 am CDT

IL
. Illinois counties included are

Boone Bureau Carroll
Cook De Kalb dupage
Grundy Henderson Henry
Jo Daviess Kane Kankakee
Kendall Knox Lake
La Salle Lee McHenry
Marshall Mercer Ogle
Putnam Rock Island Stark
Stephenson Warren Whiteside
will Winnebago